Time;durP1;ratioP1;P1;durP2;ratioP2;P2;SDS_P1;SDS_P2;PMS_P1;PMS_P2;Temp;Humidity;BMP_temperature;BMP_pressure;BME280_temperature;BME280_humidity;BME280_pressure;Samples;Min_cycle;Max_cycle;Signal;HPM_P1;HPM_P2
2023/02/09 00:01:38;;;;;;;66.80;40.60;;;;;;;-8.01;87.26;101884.98;435553;1251;141976;-62
2023/02/09 00:22:07;;;;;;;44.00;31.70;;;;;;;-8.05;88.73;101888.86;450284;1250;142521;-62
2023/02/09 00:32:13;;;;;;;45.00;29.10;;;;;;;-8.00;89.24;101871.45;451000;1250;143220;-62
2023/02/09 00:42:19;;;;;;;41.70;29.30;;;;;;;-8.12;89.15;101870.17;450999;1250;143122;-61
2023/02/09 00:52:25;;;;;;;51.30;32.60;;;;;;;-8.30;89.02;101869.64;450291;1250;143884;-61
2023/02/09 01:02:31;;;;;;;51.70;32.40;;;;;;;-8.48;89.23;101867.73;449594;1251;143100;-61
2023/02/09 01:12:40;;;;;;;54.10;32.70;;;;;;;-8.54;89.79;101859.65;448654;1249;142183;-62
2023/02/09 01:22:47;;;;;;;46.20;32.10;;;;;;;-8.58;90.36;101848.39;451046;1250;144100;-62
2023/02/09 01:32:53;;;;;;;48.40;31.70;;;;;;;-8.66;90.59;101838.98;451008;1250;142631;-63
2023/02/09 01:42:58;;;;;;;53.60;34.60;;;;;;;-8.71;90.99;101827.04;450295;1251;142498;-62
2023/02/09 01:53:05;;;;;;;51.10;35.40;;;;;;;-8.75;91.27;101807.46;451015;1251;142735;-61
2023/02/09 02:03:15;;;;;;;50.80;36.40;;;;;;;-8.88;91.25;101796.10;447913;1250;142558;-62
2023/02/09 02:13:21;;;;;;;55.40;36.20;;;;;;;-9.00;91.65;101790.08;433523;1252;142656;-62
2023/02/09 02:23:36;;;;;;;58.50;37.20;;;;;;;-9.08;92.10;101780.00;447594;1250;142560;-62
2023/02/09 02:33:49;;;;;;;56.90;36.80;;;;;;;-9.12;92.31;101764.18;450227;1251;143972;-62
2023/02/09 02:44:03;;;;;;;54.20;34.80;;;;;;;-9.24;92.27;101737.57;450965;1249;142925;-63
2023/02/09 02:54:13;;;;;;;52.60;35.20;;;;;;;-9.38;92.19;101728.40;451053;1251;142828;-61
2023/02/09 03:04:20;;;;;;;53.30;36.90;;;;;;;-9.47;92.34;101711.50;446664;1251;142969;-62
2023/02/09 03:14:41;;;;;;;56.00;37.00;;;;;;;-9.53;92.70;101706.77;450934;1250;142962;-62
2023/02/09 03:24:52;;;;;;;51.20;35.90;;;;;;;-9.56;93.07;101701.86;450145;1250;142396;-61
2023/02/09 03:34:58;;;;;;;53.60;38.00;;;;;;;-9.54;93.48;101694.15;451001;1249;143359;-61
2023/02/09 03:45:06;;;;;;;51.60;35.10;;;;;;;-9.49;93.60;101690.86;435696;1253;142139;-61
2023/02/09 03:55:12;;;;;;;56.80;36.00;;;;;;;-9.44;93.92;101677.89;450223;1250;142755;-62
2023/02/09 04:05:18;;;;;;;50.60;35.10;;;;;;;-9.44;93.82;101672.30;447492;1253;143420;-61
2023/02/09 04:15:25;;;;;;;52.20;35.50;;;;;;;-9.36;94.07;101666.92;449099;1250;142167;-62
2023/02/09 04:25:31;;;;;;;54.70;34.80;;;;;;;-9.37;94.00;101657.71;450485;1251;201116;-61
2023/02/09 04:35:37;;;;;;;59.70;39.70;;;;;;;-9.48;93.73;101648.33;451030;1249;143827;-62
2023/02/09 04:45:43;;;;;;;58.40;40.10;;;;;;;-9.61;93.55;101636.67;450158;1250;143239;-62
2023/02/09 04:55:50;;;;;;;50.50;36.60;;;;;;;-9.76;93.36;101631.52;451108;1251;142626;-62
2023/02/09 05:05:58;;;;;;;64.30;39.30;;;;;;;-9.87;93.22;101626.71;450981;1251;141930;-62
2023/02/09 05:16:09;;;;;;;58.60;41.50;;;;;;;-10.00;93.35;101620.11;441261;1251;143625;-61
2023/02/09 05:26:15;;;;;;;67.20;44.20;;;;;;;-10.07;93.28;101619.40;433826;1254;142743;-61
2023/02/09 05:36:21;;;;;;;66.40;42.60;;;;;;;-10.04;93.78;101611.23;440226;1251;142969;-62
2023/02/09 05:46:27;;;;;;;55.10;39.50;;;;;;;-10.04;93.89;101600.42;448507;1249;143049;-63
2023/02/09 05:56:34;;;;;;;62.60;42.20;;;;;;;-10.00;94.07;101607.72;446643;1251;142979;-61
2023/02/09 06:06:40;;;;;;;69.60;43.40;;;;;;;-9.87;94.07;101605.02;438598;1249;144084;-63
2023/02/09 06:16:46;;;;;;;62.00;39.70;;;;;;;-9.84;94.00;101604.49;445505;1250;143135;-61
2023/02/09 06:26:52;;;;;;;69.50;44.30;;;;;;;-9.66;94.32;101602.34;433299;1253;142409;-62
2023/02/09 06:36:58;;;;;;;68.60;45.40;;;;;;;-9.48;94.40;101590.67;433287;1251;143752;-62
2023/02/09 06:47:04;;;;;;;69.00;43.20;;;;;;;-9.29;94.02;101583.31;446725;1249;142682;-61
2023/02/09 06:57:09;;;;;;;64.10;39.30;;;;;;;-9.09;93.72;101587.17;450886;1249;142938;-61
2023/02/09 07:07:15;;;;;;;60.40;38.60;;;;;;;-8.57;93.86;101579.36;450264;1249;143291;-62
2023/02/09 07:17:21;;;;;;;59.70;38.00;;;;;;;-7.00;93.67;101564.09;451057;1249;142233;-62
2023/02/09 07:27:28;;;;;;;57.10;35.70;;;;;;;-3.15;91.45;101548.77;444988;1250;143205;-62
2023/02/09 07:37:34;;;;;;;50.30;37.10;;;;;;;0.18;86.97;101529.94;445497;1249;141947;-61
2023/02/09 07:47:40;;;;;;;48.30;34.30;;;;;;;3.11;83.25;101523.91;451228;1249;141743;-62
2023/02/09 07:57:46;;;;;;;45.30;33.80;;;;;;;5.69;79.21;101516.91;450426;1249;142834;-62
2023/02/09 08:07:52;;;;;;;45.70;37.00;;;;;;;7.78;75.76;101518.63;451238;1250;141508;-62
2023/02/09 08:18:01;;;;;;;45.60;37.50;;;;;;;9.39;72.08;101508.24;450177;1249;142106;-62
2023/02/09 08:28:08;;;;;;;48.10;38.60;;;;;;;11.61;69.00;101500.50;444711;1250;141143;-62
2023/02/09 08:38:14;;;;;;;49.90;41.10;;;;;;;13.10;65.22;101503.55;451006;1249;141855;-63
2023/02/09 08:48:20;;;;;;;34.30;30.40;;;;;;;13.64;61.50;101502.73;451229;1250;142105;-62
2023/02/09 08:58:28;;;;;;;27.10;23.20;;;;;;;14.60;56.25;101498.08;450283;1250;144485;-63
2023/02/09 09:08:36;;;;;;;24.80;22.20;;;;;;;15.98;52.72;101484.67;451233;1249;141579;-63
2023/02/09 09:18:43;;;;;;;31.20;21.50;;;;;;;16.86;50.26;101476.66;450435;1249;142229;-63
2023/02/09 09:28:50;;;;;;;20.90;18.90;;;;;;;17.54;48.11;101468.91;450720;1249;141161;-62
2023/02/09 09:38:56;;;;;;;29.70;27.20;;;;;;;16.97;45.78;101472.63;451262;1249;141132;-63
2023/02/09 09:49:03;;;;;;;20.10;16.50;;;;;;;16.27;44.42;101470.70;450415;1250;141660;-64
2023/02/09 09:59:17;;;;;;;24.20;18.40;;;;;;;11.92;44.38;101472.02;451107;1250;142041;-63
2023/02/09 10:09:33;;;;;;;29.00;18.10;;;;;;;7.09;46.04;101462.39;451260;1249;142215;-63
2023/02/09 10:19:39;;;;;;;26.50;16.40;;;;;;;4.58;48.13;101451.09;450828;1249;196756;-63
2023/02/09 10:29:45;;;;;;;23.60;15.10;;;;;;;3.19;49.35;101438.49;441438;1249;140770;-62
2023/02/09 10:40:00;;;;;;;22.70;15.20;;;;;;;2.24;50.89;101414.13;449405;1250;142950;-63
2023/02/09 10:50:17;;;;;;;23.70;16.70;;;;;;;1.76;51.90;101394.94;450566;1250;141831;-62
2023/02/09 11:00:34;;;;;;;26.20;16.90;;;;;;;1.46;52.79;101376.75;451250;1250;140650;-62
2023/02/09 11:10:49;;;;;;;20.80;14.30;;;;;;;1.39;53.51;101371.37;450837;1249;196175;-62
2023/02/09 11:21:01;;;;;;;21.20;14.20;;;;;;;1.35;54.03;101363.60;451295;1250;141005;-62
2023/02/09 11:31:31;;;;;;;23.20;15.30;;;;;;;1.27;54.10;101351.84;441101;1250;141290;-61
2023/02/09 11:52:08;;;;;;;23.20;15.60;;;;;;;1.12;54.82;101332.64;450485;1249;143135;-63
2023/02/09 12:02:31;;;;;;;20.40;12.80;;;;;;;1.17;55.03;101329.05;451220;1249;141956;-63
2023/02/09 12:12:44;;;;;;;18.70;11.50;;;;;;;1.22;55.03;101320.60;444523;1249;140982;-63
2023/02/09 12:23:18;;;;;;;15.10;11.50;;;;;;;1.23;54.72;101304.91;451206;1250;141552;-62
2023/02/09 12:33:31;;;;;;;17.70;9.80;;;;;;;1.31;54.80;101294.21;438915;1249;141510;-61
2023/02/09 12:43:39;;;;;;;13.70;9.20;;;;;;;1.39;54.58;101281.81;450666;1250;210758;-63
2023/02/09 12:53:49;;;;;;;15.20;10.10;;;;;;;1.43;54.52;101267.66;451162;1250;140742;-62
2023/02/09 13:04:01;;;;;;;15.10;10.20;;;;;;;1.50;54.16;101257.14;450349;1250;142010;-62
2023/02/09 13:14:12;;;;;;;19.90;12.30;;;;;;;1.55;53.99;101253.16;451352;1250;141549;-62
2023/02/09 13:24:21;;;;;;;12.90;9.00;;;;;;;1.54;54.12;101248.34;451271;1249;140883;-62
2023/02/09 13:34:34;;;;;;;16.50;9.80;;;;;;;1.48;54.02;101237.80;436159;1250;140452;-63
2023/02/09 13:44:45;;;;;;;10.30;8.40;;;;;;;1.38;54.19;101229.35;451195;1250;141399;-63
2023/02/09 13:54:52;;;;;;;17.60;10.00;;;;;;;1.35;54.21;101226.24;450466;1250;141128;-62
2023/02/09 14:04:59;;;;;;;;;;;;;;;1.31;54.21;101209.67;451325;1250;141012;-63
2023/02/09 14:25:30;;;;;;;13.40;9.40;;;;;;;1.16;54.46;101187.06;450299;1250;141302;-62
2023/02/09 14:35:41;;;;;;;12.20;8.30;;;;;;;1.06;54.38;101173.27;448115;1250;140522;-62
2023/02/09 14:45:57;;;;;;;14.30;9.20;;;;;;;0.91;54.64;101166.00;450503;1250;142423;-62
2023/02/09 14:56:03;;;;;;;18.40;11.60;;;;;;;0.75;55.02;101160.47;451206;1249;142154;-63
2023/02/09 15:06:11;;;;;;;13.90;9.20;;;;;;;0.56;55.19;101149.73;438579;1251;140880;-62
2023/02/09 15:16:17;;;;;;;17.90;9.80;;;;;;;0.33;55.77;101147.60;450263;1250;141690;-63
2023/02/09 15:26:25;;;;;;;18.20;11.30;;;;;;;0.10;56.37;101146.14;450930;1250;141749;-63
2023/02/09 15:36:32;;;;;;;18.10;11.40;;;;;;;-0.20;56.73;101143.75;450189;1249;142294;-62
2023/02/09 15:57:01;;;;;;;21.20;12.30;;;;;;;-0.97;57.93;101154.39;451001;1250;142397;-63
2023/02/09 16:07:10;;;;;;;22.80;14.60;;;;;;;-1.33;58.61;101154.57;450147;1249;142744;-62
2023/02/09 16:17:16;;;;;;;28.80;17.50;;;;;;;-1.64;58.69;101146.16;451023;1250;142210;-62
2023/02/09 16:27:27;;;;;;;27.50;18.00;;;;;;;-1.90;59.15;101144.66;450827;1250;141538;-62
2023/02/09 16:37:33;;;;;;;29.40;18.30;;;;;;;-2.13;59.75;101142.48;446707;1249;212911;-63
2023/02/09 16:47:44;;;;;;;35.50;18.30;;;;;;;-2.35;60.50;101126.41;450835;1250;141541;-62
2023/02/09 16:57:53;;;;;;;23.10;16.20;;;;;;;-2.44;60.83;101120.09;449959;1250;141457;-64
2023/02/09 17:08:04;;;;;;;26.70;16.70;;;;;;;-2.46;61.06;101107.90;450614;1251;141709;-62
2023/02/09 17:18:15;;;;;;;34.90;20.50;;;;;;;-2.59;61.42;101100.70;443796;1250;141177;-63
2023/02/09 17:28:22;;;;;;;36.00;21.70;;;;;;;-2.72;61.69;101091.92;437455;1250;142581;-61
2023/02/09 17:38:31;;;;;;;31.10;18.70;;;;;;;-2.89;62.21;101084.81;447609;1251;142369;-63
2023/02/09 17:48:37;;;;;;;34.20;17.70;;;;;;;-3.02;62.50;101085.98;450011;1253;141581;-62
2023/02/09 17:58:43;;;;;;;31.40;21.10;;;;;;;-3.15;62.86;101079.61;450904;1250;142413;-61
2023/02/09 18:08:49;;;;;;;25.70;15.70;;;;;;;-3.17;63.27;101071.36;451130;1250;142188;-61
2023/02/09 18:18:55;;;;;;;31.10;18.70;;;;;;;-3.13;63.60;101050.18;450340;1250;141563;-61
2023/02/09 18:29:01;;;;;;;26.40;15.00;;;;;;;-3.07;63.61;101039.30;451019;1250;141813;-62
2023/02/09 18:39:07;;;;;;;23.10;13.50;;;;;;;-3.04;63.55;101039.87;450887;1249;142145;-62
2023/02/09 18:49:13;;;;;;;21.60;13.30;;;;;;;-2.96;64.00;101033.47;450247;1250;142514;-61
2023/02/09 18:59:19;;;;;;;28.40;15.70;;;;;;;-2.96;63.93;101029.70;451062;1250;142058;-62
2023/02/09 19:09:26;;;;;;;30.00;16.40;;;;;;;-3.00;64.09;101016.63;450979;1250;142419;-62
2023/02/09 19:19:32;;;;;;;28.30;15.50;;;;;;;-3.00;64.21;101004.63;434063;1251;142173;-63
2023/02/09 19:29:37;;;;;;;;;;;;;;;-2.94;64.60;101005.04;447538;1251;141751;-62
2023/02/09 19:39:51;;;;;;;28.80;16.90;;;;;;;-2.85;64.74;101004.32;443057;1252;128764;-62
2023/02/09 19:49:58;;;;;;;22.40;15.10;;;;;;;-2.84;64.68;100987.89;435708;1253;141596;-61
2023/02/09 20:00:05;;;;;;;24.30;15.10;;;;;;;-2.79;65.12;100986.75;448455;1250;141640;-63
2023/02/09 20:10:11;;;;;;;31.60;17.20;;;;;;;-2.73;65.05;101006.02;445205;1252;142316;-62
2023/02/09 20:20:17;;;;;;;21.40;14.90;;;;;;;-2.76;65.29;101014.55;449996;1253;142068;-62
2023/02/09 20:30:23;;;;;;;21.90;12.70;;;;;;;-2.82;65.47;100995.98;443838;1251;141555;-62
2023/02/09 20:40:29;;;;;;;23.80;14.10;;;;;;;-2.79;65.66;100983.49;448271;1251;142061;-62
2023/02/09 20:50:35;;;;;;;25.50;15.70;;;;;;;-2.79;65.81;100994.81;434086;1254;141556;-62
2023/02/09 21:00:42;;;;;;;31.30;16.50;;;;;;;-2.87;66.09;101017.48;448373;1250;142242;-63
2023/02/09 21:10:54;;;;;;;25.20;14.80;;;;;;;-2.94;66.30;101014.14;450473;1252;142125;-62
2023/02/09 21:21:00;;;;;;;21.70;13.50;;;;;;;-2.94;66.56;101000.77;450524;1250;143092;-62
2023/02/09 21:31:11;;;;;;;22.40;14.60;;;;;;;-2.91;66.78;100995.84;449800;1251;142536;-62
2023/02/09 21:51:44;;;;;;;25.60;15.70;;;;;;;-3.03;67.10;100998.94;446271;1251;149677;-61
2023/02/09 22:01:50;;;;;;;25.80;13.70;;;;;;;-3.10;67.26;100993.00;450289;1251;143401;-61
2023/02/09 22:11:56;;;;;;;22.30;14.10;;;;;;;-3.13;67.59;100997.23;449316;1250;143772;-61
2023/02/09 22:22:01;;;;;;;;;;;;;;;-3.15;67.78;100990.35;449939;1251;143158;-63
2023/02/09 22:32:06;;;;;;;24.90;14.60;;;;;;;-3.21;67.86;100993.01;439659;1251;127703;-61
2023/02/09 22:42:11;;;;;;;;;;;;;;;-3.25;68.13;100986.10;448170;1251;142667;-62
2023/02/09 22:52:17;;;;;;;24.20;15.30;;;;;;;-3.26;68.20;100991.73;437417;1253;128161;-62
2023/02/09 23:02:21;;;;;;;;;;;;;;;-3.35;68.45;100996.73;446878;1251;142479;-62
2023/02/09 23:12:27;;;;;;;22.00;14.00;;;;;;;-3.46;68.85;100998.09;450765;1251;128526;-61
2023/02/09 23:22:33;;;;;;;19.10;14.40;;;;;;;-3.48;69.10;100996.16;445672;1251;214082;-62
2023/02/09 23:32:38;;;;;;;;;;;;;;;-3.46;69.04;100978.76;450696;1249;143279;-61
2023/02/09 23:42:44;;;;;;;24.00;14.80;;;;;;;-3.47;69.24;100985.24;450283;1251;128542;-62
2023/02/09 23:52:48;;;;;;;;;;;;;;;-3.57;69.60;100982.17;450722;1250;141659;-63
